Portada
METAR-TAF:

METAR-TAF

Aeroports :

Aeroport Internacional de Mitiga

Trípoli, Líbia

latitud: 32-54N, longitud: 13-17E, altitud: 11 m

METAR: manca

Hora: 19:49 (17:49 UTC)

Pronòstic

L'informe es va fer fa 49 minuts, a les 17:00 UTC
Pronòstic vàlid del 31 a les 18 UTC al 01 a les 18 UTC
Vent 12 kt del Nord/Nord-Est
Visibilitat 10 km o més
Escasses núvols a una alçada de 2500 ft
Evolucionant progressivament
l' 31 a les 20 UTC al 31 a les 22 UTC
Vent 10 kt del Est/Sud-Est
Evolucionant progressivament
l' 01 a les 04 UTC al 01 a les 06 UTC
Vent 2 kt amb direcció variable
Evolucionant progressivament
l' 01 a les 16 UTC al 01 a les 18 UTC
Vent 10 kt del Est/Nord-Est

TAF: HLLM 311700Z 3118/0118 03012KT 9999 FEW025 BECMG 3120/3122 12010KT BECMG 0104/0106 VRB02KT BECMG 0116/0118 06010KT

Observacions i pronòstics meteorològics de més de 4000 aeroports (METAR i TAF).

Les estacions disponibles són els punts grocs i vermells al mapa.

Posi el ratolí al punt desitjat per veure el nom de l'estació.

Feu clic per veure les observacions i els pronòstics meteorològics.

Per canviar el mapa: feu clic els botons verds amb una creu de color negre per apropar; al botó verd amb un guió per allunyar la imatge; o en les fletxes verdes per a mapes adjacents.


METAR-TAF: